sensor_id;sensor_type;location;lat;lon;timestamp;P1;durP1;ratioP1;P2;durP2;ratioP2
11691;SDS011;33659;42.672;23.354;2022-08-19T00:00:36;5.60;;;4.07;;
11691;SDS011;33659;42.672;23.354;2022-08-19T00:03:03;5.03;;;3.85;;
11691;SDS011;33659;42.672;23.354;2022-08-19T00:05:31;7.93;;;3.80;;
11691;SDS011;33659;42.672;23.354;2022-08-19T00:07:58;5.63;;;4.00;;
11691;SDS011;33659;42.672;23.354;2022-08-19T00:10:26;4.78;;;4.10;;
11691;SDS011;33659;42.672;23.354;2022-08-19T00:12:53;6.00;;;3.88;;
11691;SDS011;33659;42.672;23.354;2022-08-19T00:15:20;7.93;;;4.18;;
11691;SDS011;33659;42.672;23.354;2022-08-19T00:17:47;4.32;;;3.92;;
11691;SDS011;33659;42.672;23.354;2022-08-19T00:20:15;5.05;;;4.32;;
11691;SDS011;33659;42.672;23.354;2022-08-19T00:22:45;6.57;;;4.32;;
11691;SDS011;33659;42.672;23.354;2022-08-19T00:25:12;9.27;;;4.78;;
11691;SDS011;33659;42.672;23.354;2022-08-19T00:27:41;7.47;;;4.40;;
11691;SDS011;33659;42.672;23.354;2022-08-19T00:30:08;5.38;;;4.38;;
11691;SDS011;33659;42.672;23.354;2022-08-19T00:32:36;5.30;;;3.50;;
11691;SDS011;33659;42.672;23.354;2022-08-19T00:35:04;6.03;;;4.05;;
11691;SDS011;33659;42.672;23.354;2022-08-19T00:37:31;4.50;;;3.83;;
11691;SDS011;33659;42.672;23.354;2022-08-19T00:39:59;6.05;;;4.45;;
11691;SDS011;33659;42.672;23.354;2022-08-19T00:42:27;6.45;;;4.38;;
11691;SDS011;33659;42.672;23.354;2022-08-19T00:44:55;6.20;;;4.65;;
11691;SDS011;33659;42.672;23.354;2022-08-19T00:47:22;8.38;;;4.35;;
11691;SDS011;33659;42.672;23.354;2022-08-19T00:49:50;8.30;;;5.15;;
11691;SDS011;33659;42.672;23.354;2022-08-19T00:52:21;8.10;;;4.68;;
11691;SDS011;33659;42.672;23.354;2022-08-19T00:54:50;5.82;;;5.10;;
11691;SDS011;33659;42.672;23.354;2022-08-19T00:57:19;5.35;;;4.45;;
11691;SDS011;33659;42.672;23.354;2022-08-19T00:59:51;5.32;;;4.10;;
11691;SDS011;33659;42.672;23.354;2022-08-19T01:02:21;5.35;;;4.50;;
11691;SDS011;33659;42.672;23.354;2022-08-19T01:04:48;6.18;;;4.35;;
11691;SDS011;33659;42.672;23.354;2022-08-19T01:07:15;6.50;;;4.32;;
11691;SDS011;33659;42.672;23.354;2022-08-19T01:09:42;5.45;;;4.30;;
11691;SDS011;33659;42.672;23.354;2022-08-19T01:12:09;5.10;;;4.10;;
11691;SDS011;33659;42.672;23.354;2022-08-19T01:14:36;4.75;;;4.35;;
11691;SDS011;33659;42.672;23.354;2022-08-19T01:17:05;4.68;;;4.18;;
11691;SDS011;33659;42.672;23.354;2022-08-19T01:19:35;8.68;;;4.82;;
11691;SDS011;33659;42.672;23.354;2022-08-19T01:22:05;5.68;;;4.70;;
11691;SDS011;33659;42.672;23.354;2022-08-19T01:24:38;5.05;;;4.53;;
11691;SDS011;33659;42.672;23.354;2022-08-19T01:27:05;6.45;;;4.60;;
11691;SDS011;33659;42.672;23.354;2022-08-19T01:29:32;6.10;;;4.78;;
11691;SDS011;33659;42.672;23.354;2022-08-19T01:32:00;8.60;;;4.45;;
11691;SDS011;33659;42.672;23.354;2022-08-19T01:34:27;5.63;;;4.10;;
11691;SDS011;33659;42.672;23.354;2022-08-19T01:36:54;5.22;;;4.40;;
11691;SDS011;33659;42.672;23.354;2022-08-19T01:39:22;5.47;;;4.75;;
11691;SDS011;33659;42.672;23.354;2022-08-19T01:41:51;5.38;;;4.88;;
11691;SDS011;33659;42.672;23.354;2022-08-19T01:44:19;4.68;;;4.10;;
11691;SDS011;33659;42.672;23.354;2022-08-19T01:46:49;5.55;;;4.53;;
11691;SDS011;33659;42.672;23.354;2022-08-19T01:49:17;6.63;;;4.50;;
11691;SDS011;33659;42.672;23.354;2022-08-19T01:51:47;5.13;;;4.55;;
11691;SDS011;33659;42.672;23.354;2022-08-19T01:54:15;5.95;;;4.32;;
11691;SDS011;33659;42.672;23.354;2022-08-19T01:56:43;5.20;;;4.55;;
11691;SDS011;33659;42.672;23.354;2022-08-19T01:59:12;5.00;;;4.57;;
11691;SDS011;33659;42.672;23.354;2022-08-19T02:01:43;7.55;;;4.95;;
11691;SDS011;33659;42.672;23.354;2022-08-19T02:04:10;5.10;;;4.50;;
11691;SDS011;33659;42.672;23.354;2022-08-19T02:06:37;7.15;;;4.75;;
11691;SDS011;33659;42.672;23.354;2022-08-19T02:09:07;4.38;;;3.88;;
11691;SDS011;33659;42.672;23.354;2022-08-19T02:11:35;6.97;;;4.47;;
11691;SDS011;33659;42.672;23.354;2022-08-19T02:14:04;6.15;;;5.63;;
11691;SDS011;33659;42.672;23.354;2022-08-19T02:16:34;4.93;;;4.10;;
11691;SDS011;33659;42.672;23.354;2022-08-19T02:19:02;5.63;;;4.40;;
11691;SDS011;33659;42.672;23.354;2022-08-19T02:21:29;5.05;;;4.45;;
11691;SDS011;33659;42.672;23.354;2022-08-19T02:23:56;4.97;;;4.35;;
11691;SDS011;33659;42.672;23.354;2022-08-19T02:26:24;7.30;;;4.57;;
11691;SDS011;33659;42.672;23.354;2022-08-19T02:28:52;6.45;;;3.97;;
11691;SDS011;33659;42.672;23.354;2022-08-19T02:31:20;4.68;;;4.10;;
11691;SDS011;33659;42.672;23.354;2022-08-19T02:33:49;5.47;;;4.03;;
11691;SDS011;33659;42.672;23.354;2022-08-19T02:36:17;4.45;;;4.00;;
11691;SDS011;33659;42.672;23.354;2022-08-19T02:38:44;5.97;;;4.30;;
11691;SDS011;33659;42.672;23.354;2022-08-19T02:41:12;4.70;;;4.25;;
11691;SDS011;33659;42.672;23.354;2022-08-19T02:43:42;4.53;;;4.13;;
11691;SDS011;33659;42.672;23.354;2022-08-19T02:46:12;4.05;;;3.75;;
11691;SDS011;33659;42.672;23.354;2022-08-19T02:48:42;7.00;;;3.95;;
11691;SDS011;33659;42.672;23.354;2022-08-19T02:51:14;6.00;;;4.25;;
11691;SDS011;33659;42.672;23.354;2022-08-19T02:53:42;5.60;;;4.72;;
11691;SDS011;33659;42.672;23.354;2022-08-19T02:56:09;5.75;;;4.38;;
11691;SDS011;33659;42.672;23.354;2022-08-19T02:58:36;7.35;;;4.47;;
11691;SDS011;33659;42.672;23.354;2022-08-19T03:01:02;5.15;;;4.68;;
11691;SDS011;33659;42.672;23.354;2022-08-19T03:03:29;6.82;;;5.75;;
11691;SDS011;33659;42.672;23.354;2022-08-19T03:06:07;6.28;;;5.03;;
11691;SDS011;33659;42.672;23.354;2022-08-19T03:08:37;6.35;;;4.60;;
11691;SDS011;33659;42.672;23.354;2022-08-19T03:11:04;9.30;;;4.90;;
11691;SDS011;33659;42.672;23.354;2022-08-19T03:13:31;6.10;;;4.70;;
11691;SDS011;33659;42.672;23.354;2022-08-19T03:15:58;5.22;;;4.72;;
11691;SDS011;33659;42.672;23.354;2022-08-19T03:18:25;7.07;;;4.78;;
11691;SDS011;33659;42.672;23.354;2022-08-19T03:20:52;6.03;;;5.20;;
11691;SDS011;33659;42.672;23.354;2022-08-19T03:23:19;8.43;;;5.63;;
11691;SDS011;33659;42.672;23.354;2022-08-19T03:25:48;7.10;;;5.40;;
11691;SDS011;33659;42.672;23.354;2022-08-19T03:28:16;7.05;;;4.80;;
11691;SDS011;33659;42.672;23.354;2022-08-19T03:30:53;7.45;;;5.47;;
11691;SDS011;33659;42.672;23.354;2022-08-19T03:33:22;8.13;;;5.97;;
11691;SDS011;33659;42.672;23.354;2022-08-19T03:35:59;7.72;;;5.10;;
11691;SDS011;33659;42.672;23.354;2022-08-19T03:38:27;10.20;;;5.18;;
11691;SDS011;33659;42.672;23.354;2022-08-19T03:40:55;5.55;;;4.75;;
11691;SDS011;33659;42.672;23.354;2022-08-19T03:43:22;5.72;;;5.13;;
11691;SDS011;33659;42.672;23.354;2022-08-19T03:45:58;8.00;;;5.18;;
11691;SDS011;33659;42.672;23.354;2022-08-19T03:48:26;9.23;;;4.82;;
11691;SDS011;33659;42.672;23.354;2022-08-19T03:50:52;8.43;;;5.32;;
11691;SDS011;33659;42.672;23.354;2022-08-19T03:53:19;8.35;;;4.97;;
11691;SDS011;33659;42.672;23.354;2022-08-19T03:55:46;5.95;;;5.15;;
11691;SDS011;33659;42.672;23.354;2022-08-19T03:58:14;8.63;;;4.90;;
11691;SDS011;33659;42.672;23.354;2022-08-19T04:00:41;6.07;;;5.45;;
11691;SDS011;33659;42.672;23.354;2022-08-19T04:03:08;5.53;;;5.00;;
11691;SDS011;33659;42.672;23.354;2022-08-19T04:05:34;10.38;;;4.75;;
11691;SDS011;33659;42.672;23.354;2022-08-19T04:08:02;6.60;;;5.30;;
11691;SDS011;33659;42.672;23.354;2022-08-19T04:10:31;7.25;;;4.75;;
11691;SDS011;33659;42.672;23.354;2022-08-19T04:13:01;6.75;;;4.80;;
11691;SDS011;33659;42.672;23.354;2022-08-19T04:15:30;6.10;;;4.95;;
11691;SDS011;33659;42.672;23.354;2022-08-19T04:18:00;6.75;;;5.25;;
11691;SDS011;33659;42.672;23.354;2022-08-19T04:20:27;6.45;;;4.82;;
11691;SDS011;33659;42.672;23.354;2022-08-19T04:22:55;5.53;;;5.00;;
11691;SDS011;33659;42.672;23.354;2022-08-19T04:25:22;8.88;;;4.68;;
11691;SDS011;33659;42.672;23.354;2022-08-19T04:27:49;8.68;;;5.55;;
11691;SDS011;33659;42.672;23.354;2022-08-19T04:30:16;6.15;;;5.10;;
11691;SDS011;33659;42.672;23.354;2022-08-19T04:32:45;5.93;;;5.32;;
11691;SDS011;33659;42.672;23.354;2022-08-19T04:35:12;6.72;;;5.32;;
11691;SDS011;33659;42.672;23.354;2022-08-19T04:37:38;9.85;;;5.47;;
11691;SDS011;33659;42.672;23.354;2022-08-19T04:40:06;5.95;;;5.22;;
11691;SDS011;33659;42.672;23.354;2022-08-19T04:42:51;6.10;;;5.20;;
11691;SDS011;33659;42.672;23.354;2022-08-19T04:45:18;8.20;;;5.13;;
11691;SDS011;33659;42.672;23.354;2022-08-19T04:47:46;7.93;;;5.22;;
11691;SDS011;33659;42.672;23.354;2022-08-19T04:50:13;7.95;;;6.13;;
11691;SDS011;33659;42.672;23.354;2022-08-19T04:52:40;9.52;;;5.13;;
11691;SDS011;33659;42.672;23.354;2022-08-19T04:55:08;6.53;;;5.07;;
11691;SDS011;33659;42.672;23.354;2022-08-19T04:57:36;10.75;;;6.32;;
11691;SDS011;33659;42.672;23.354;2022-08-19T05:00:05;7.25;;;5.72;;
11691;SDS011;33659;42.672;23.354;2022-08-19T05:02:33;8.88;;;6.00;;
11691;SDS011;33659;42.672;23.354;2022-08-19T05:05:02;7.75;;;5.28;;
11691;SDS011;33659;42.672;23.354;2022-08-19T05:07:31;7.25;;;5.28;;
11691;SDS011;33659;42.672;23.354;2022-08-19T05:09:58;12.43;;;5.40;;
11691;SDS011;33659;42.672;23.354;2022-08-19T05:12:24;5.20;;;4.70;;
11691;SDS011;33659;42.672;23.354;2022-08-19T05:14:52;5.10;;;4.60;;
11691;SDS011;33659;42.672;23.354;2022-08-19T05:17:19;5.35;;;4.72;;
11691;SDS011;33659;42.672;23.354;2022-08-19T05:19:46;7.82;;;4.95;;
11691;SDS011;33659;42.672;23.354;2022-08-19T05:22:31;5.00;;;4.43;;
11691;SDS011;33659;42.672;23.354;2022-08-19T05:24:59;9.02;;;5.03;;
11691;SDS011;33659;42.672;23.354;2022-08-19T05:27:31;5.53;;;4.43;;
11691;SDS011;33659;42.672;23.354;2022-08-19T05:29:58;9.23;;;5.10;;
11691;SDS011;33659;42.672;23.354;2022-08-19T05:32:26;5.53;;;4.90;;
11691;SDS011;33659;42.672;23.354;2022-08-19T05:34:53;5.45;;;4.93;;
11691;SDS011;33659;42.672;23.354;2022-08-19T05:37:20;11.50;;;5.18;;
11691;SDS011;33659;42.672;23.354;2022-08-19T05:39:48;11.18;;;5.72;;
11691;SDS011;33659;42.672;23.354;2022-08-19T05:42:15;10.32;;;5.53;;
11691;SDS011;33659;42.672;23.354;2022-08-19T05:44:43;7.13;;;5.05;;
11691;SDS011;33659;42.672;23.354;2022-08-19T05:47:12;6.15;;;4.95;;
11691;SDS011;33659;42.672;23.354;2022-08-19T05:49:40;7.80;;;5.07;;
11691;SDS011;33659;42.672;23.354;2022-08-19T05:52:09;8.45;;;5.20;;
11691;SDS011;33659;42.672;23.354;2022-08-19T05:54:37;8.43;;;5.50;;
11691;SDS011;33659;42.672;23.354;2022-08-19T05:57:06;6.28;;;5.18;;
11691;SDS011;33659;42.672;23.354;2022-08-19T05:59:34;7.82;;;5.82;;
11691;SDS011;33659;42.672;23.354;2022-08-19T06:02:01;8.50;;;5.75;;
11691;SDS011;33659;42.672;23.354;2022-08-19T06:04:29;6.70;;;5.60;;
11691;SDS011;33659;42.672;23.354;2022-08-19T06:06:55;8.05;;;5.72;;
11691;SDS011;33659;42.672;23.354;2022-08-19T06:09:23;8.55;;;5.70;;
11691;SDS011;33659;42.672;23.354;2022-08-19T06:11:50;8.27;;;5.70;;
11691;SDS011;33659;42.672;23.354;2022-08-19T06:14:21;10.40;;;6.03;;
11691;SDS011;33659;42.672;23.354;2022-08-19T06:16:51;5.57;;;4.82;;
11691;SDS011;33659;42.672;23.354;2022-08-19T06:19:19;7.47;;;5.60;;
11691;SDS011;33659;42.672;23.354;2022-08-19T06:21:49;7.78;;;5.63;;
11691;SDS011;33659;42.672;23.354;2022-08-19T06:24:18;8.68;;;5.25;;
11691;SDS011;33659;42.672;23.354;2022-08-19T06:26:48;7.85;;;5.50;;
11691;SDS011;33659;42.672;23.354;2022-08-19T06:29:18;10.13;;;5.72;;
11691;SDS011;33659;42.672;23.354;2022-08-19T06:31:48;7.10;;;5.40;;
11691;SDS011;33659;42.672;23.354;2022-08-19T06:34:16;10.07;;;5.45;;
11691;SDS011;33659;42.672;23.354;2022-08-19T06:36:45;8.68;;;5.50;;
11691;SDS011;33659;42.672;23.354;2022-08-19T06:39:14;14.55;;;6.28;;
11691;SDS011;33659;42.672;23.354;2022-08-19T06:41:43;11.38;;;5.38;;
11691;SDS011;33659;42.672;23.354;2022-08-19T06:44:11;7.97;;;5.43;;
11691;SDS011;33659;42.672;23.354;2022-08-19T06:46:39;11.05;;;5.43;;
11691;SDS011;33659;42.672;23.354;2022-08-19T06:49:08;9.65;;;5.30;;
11691;SDS011;33659;42.672;23.354;2022-08-19T06:51:38;6.20;;;5.15;;
11691;SDS011;33659;42.672;23.354;2022-08-19T06:54:05;7.57;;;5.20;;
11691;SDS011;33659;42.672;23.354;2022-08-19T06:56:32;8.90;;;5.15;;
11691;SDS011;33659;42.672;23.354;2022-08-19T06:58:59;10.73;;;5.68;;
11691;SDS011;33659;42.672;23.354;2022-08-19T07:01:26;6.32;;;5.22;;
11691;SDS011;33659;42.672;23.354;2022-08-19T07:03:53;12.32;;;5.47;;
11691;SDS011;33659;42.672;23.354;2022-08-19T07:06:21;7.05;;;5.25;;
11691;SDS011;33659;42.672;23.354;2022-08-19T07:08:48;8.77;;;5.93;;
11691;SDS011;33659;42.672;23.354;2022-08-19T07:11:16;9.15;;;5.45;;
11691;SDS011;33659;42.672;23.354;2022-08-19T07:13:44;7.60;;;6.00;;
11691;SDS011;33659;42.672;23.354;2022-08-19T07:16:14;8.75;;;4.97;;
11691;SDS011;33659;42.672;23.354;2022-08-19T07:18:42;7.05;;;4.97;;
11691;SDS011;33659;42.672;23.354;2022-08-19T07:21:10;7.13;;;5.38;;
11691;SDS011;33659;42.672;23.354;2022-08-19T07:23:40;9.75;;;5.60;;
11691;SDS011;33659;42.672;23.354;2022-08-19T07:26:08;6.25;;;5.30;;
11691;SDS011;33659;42.672;23.354;2022-08-19T07:28:36;5.97;;;5.30;;
11691;SDS011;33659;42.672;23.354;2022-08-19T07:31:04;9.63;;;5.13;;
11691;SDS011;33659;42.672;23.354;2022-08-19T07:33:31;7.95;;;5.43;;
11691;SDS011;33659;42.672;23.354;2022-08-19T07:36:00;6.47;;;5.47;;
11691;SDS011;33659;42.672;23.354;2022-08-19T07:38:27;9.52;;;5.18;;
11691;SDS011;33659;42.672;23.354;2022-08-19T07:40:55;9.52;;;5.68;;
11691;SDS011;33659;42.672;23.354;2022-08-19T07:43:22;6.15;;;4.97;;
11691;SDS011;33659;42.672;23.354;2022-08-19T07:45:50;10.02;;;5.22;;
11691;SDS011;33659;42.672;23.354;2022-08-19T07:48:17;10.88;;;5.30;;
11691;SDS011;33659;42.672;23.354;2022-08-19T07:50:43;11.00;;;5.40;;
11691;SDS011;33659;42.672;23.354;2022-08-19T07:53:10;8.98;;;4.95;;
11691;SDS011;33659;42.672;23.354;2022-08-19T07:55:38;5.85;;;5.18;;
11691;SDS011;33659;42.672;23.354;2022-08-19T07:58:06;7.97;;;5.50;;
11691;SDS011;33659;42.672;23.354;2022-08-19T08:00:33;12.07;;;6.00;;
11691;SDS011;33659;42.672;23.354;2022-08-19T08:03:00;6.85;;;5.20;;
11691;SDS011;33659;42.672;23.354;2022-08-19T08:05:27;10.40;;;5.35;;
11691;SDS011;33659;42.672;23.354;2022-08-19T08:08:11;6.88;;;4.80;;
11691;SDS011;33659;42.672;23.354;2022-08-19T08:11:06;8.52;;;5.30;;
11691;SDS011;33659;42.672;23.354;2022-08-19T08:13:35;7.95;;;4.80;;
11691;SDS011;33659;42.672;23.354;2022-08-19T08:16:02;8.50;;;4.80;;
11691;SDS011;33659;42.672;23.354;2022-08-19T08:18:29;8.05;;;5.32;;
11691;SDS011;33659;42.672;23.354;2022-08-19T08:20:56;14.93;;;5.10;;
11691;SDS011;33659;42.672;23.354;2022-08-19T08:23:24;9.10;;;5.00;;
11691;SDS011;33659;42.672;23.354;2022-08-19T08:25:51;7.28;;;4.90;;
11691;SDS011;33659;42.672;23.354;2022-08-19T08:28:19;7.75;;;4.75;;
11691;SDS011;33659;42.672;23.354;2022-08-19T08:30:48;8.35;;;4.93;;
11691;SDS011;33659;42.672;23.354;2022-08-19T08:33:17;9.32;;;4.95;;
11691;SDS011;33659;42.672;23.354;2022-08-19T08:35:45;7.68;;;4.25;;
11691;SDS011;33659;42.672;23.354;2022-08-19T08:38:12;9.57;;;5.20;;
11691;SDS011;33659;42.672;23.354;2022-08-19T08:40:42;7.05;;;5.00;;
11691;SDS011;33659;42.672;23.354;2022-08-19T08:43:14;6.57;;;4.90;;
11691;SDS011;33659;42.672;23.354;2022-08-19T08:45:53;7.78;;;4.82;;
11691;SDS011;33659;42.672;23.354;2022-08-19T08:48:29;5.57;;;4.13;;
11691;SDS011;33659;42.672;23.354;2022-08-19T08:51:02;9.85;;;4.50;;
11691;SDS011;33659;42.672;23.354;2022-08-19T08:53:31;5.25;;;4.57;;
11691;SDS011;33659;42.672;23.354;2022-08-19T08:55:58;6.30;;;3.78;;
11691;SDS011;33659;42.672;23.354;2022-08-19T08:58:31;5.07;;;4.40;;
11691;SDS011;33659;42.672;23.354;2022-08-19T09:01:11;8.45;;;4.63;;
11691;SDS011;33659;42.672;23.354;2022-08-19T09:03:39;5.55;;;3.97;;
11691;SDS011;33659;42.672;23.354;2022-08-19T09:06:11;9.13;;;4.20;;
11691;SDS011;33659;42.672;23.354;2022-08-19T09:08:45;5.32;;;3.67;;
11691;SDS011;33659;42.672;23.354;2022-08-19T09:11:19;4.65;;;4.10;;
11691;SDS011;33659;42.672;23.354;2022-08-19T09:13:59;6.63;;;4.13;;
11691;SDS011;33659;42.672;23.354;2022-08-19T09:16:33;7.03;;;4.60;;
11691;SDS011;33659;42.672;23.354;2022-08-19T09:19:02;7.13;;;3.83;;
11691;SDS011;33659;42.672;23.354;2022-08-19T09:21:30;6.78;;;4.18;;
11691;SDS011;33659;42.672;23.354;2022-08-19T09:23:57;5.60;;;3.50;;
11691;SDS011;33659;42.672;23.354;2022-08-19T09:26:24;4.32;;;3.10;;
11691;SDS011;33659;42.672;23.354;2022-08-19T09:28:51;3.95;;;3.50;;
11691;SDS011;33659;42.672;23.354;2022-08-19T09:31:20;3.50;;;3.20;;
11691;SDS011;33659;42.672;23.354;2022-08-19T09:33:53;3.55;;;3.25;;
11691;SDS011;33659;42.672;23.354;2022-08-19T09:36:22;3.55;;;3.17;;
11691;SDS011;33659;42.672;23.354;2022-08-19T09:38:51;3.40;;;3.05;;
11691;SDS011;33659;42.672;23.354;2022-08-19T09:41:20;3.70;;;3.10;;
11691;SDS011;33659;42.672;23.354;2022-08-19T09:43:48;3.42;;;3.03;;
11691;SDS011;33659;42.672;23.354;2022-08-19T09:46:17;5.82;;;3.45;;
11691;SDS011;33659;42.672;23.354;2022-08-19T09:48:46;6.95;;;3.35;;
11691;SDS011;33659;42.672;23.354;2022-08-19T09:51:16;3.85;;;3.45;;
11691;SDS011;33659;42.672;23.354;2022-08-19T09:53:45;6.75;;;3.63;;
11691;SDS011;33659;42.672;23.354;2022-08-19T09:56:15;3.55;;;3.25;;
11691;SDS011;33659;42.672;23.354;2022-08-19T09:58:44;4.68;;;3.40;;
11691;SDS011;33659;42.672;23.354;2022-08-19T10:01:15;3.58;;;3.28;;
11691;SDS011;33659;42.672;23.354;2022-08-19T10:03:46;3.55;;;3.15;;
11691;SDS011;33659;42.672;23.354;2022-08-19T10:06:16;7.07;;;3.42;;
11691;SDS011;33659;42.672;23.354;2022-08-19T10:08:43;4.13;;;3.42;;
11691;SDS011;33659;42.672;23.354;2022-08-19T10:11:10;5.70;;;2.92;;
11691;SDS011;33659;42.672;23.354;2022-08-19T10:13:41;8.05;;;3.20;;
11691;SDS011;33659;42.672;23.354;2022-08-19T10:16:09;4.13;;;3.20;;
11691;SDS011;33659;42.672;23.354;2022-08-19T10:18:38;7.03;;;3.40;;
11691;SDS011;33659;42.672;23.354;2022-08-19T10:21:08;4.43;;;3.00;;
11691;SDS011;33659;42.672;23.354;2022-08-19T10:23:40;3.10;;;2.90;;
11691;SDS011;33659;42.672;23.354;2022-08-19T10:26:10;3.88;;;3.35;;
11691;SDS011;33659;42.672;23.354;2022-08-19T10:28:38;3.45;;;3.08;;
11691;SDS011;33659;42.672;23.354;2022-08-19T10:31:05;5.28;;;3.53;;
11691;SDS011;33659;42.672;23.354;2022-08-19T10:33:34;3.92;;;3.25;;
11691;SDS011;33659;42.672;23.354;2022-08-19T10:36:01;3.55;;;3.25;;
11691;SDS011;33659;42.672;23.354;2022-08-19T10:38:29;3.47;;;3.17;;
11691;SDS011;33659;42.672;23.354;2022-08-19T10:40:57;3.70;;;3.30;;
11691;SDS011;33659;42.672;23.354;2022-08-19T10:43:24;3.83;;;3.45;;
11691;SDS011;33659;42.672;23.354;2022-08-19T10:45:51;6.20;;;3.40;;
11691;SDS011;33659;42.672;23.354;2022-08-19T10:48:20;3.80;;;3.50;;
11691;SDS011;33659;42.672;23.354;2022-08-19T10:50:46;4.93;;;3.40;;
11691;SDS011;33659;42.672;23.354;2022-08-19T10:53:30;3.85;;;3.20;;
11691;SDS011;33659;42.672;23.354;2022-08-19T10:55:58;5.28;;;3.50;;
11691;SDS011;33659;42.672;23.354;2022-08-19T10:58:42;3.75;;;3.40;;
11691;SDS011;33659;42.672;23.354;2022-08-19T11:01:09;3.40;;;3.10;;
11691;SDS011;33659;42.672;23.354;2022-08-19T11:03:36;3.55;;;3.03;;
11691;SDS011;33659;42.672;23.354;2022-08-19T11:06:04;3.50;;;3.20;;
11691;SDS011;33659;42.672;23.354;2022-08-19T11:08:32;3.58;;;3.00;;
11691;SDS011;33659;42.672;23.354;2022-08-19T11:11:01;7.05;;;3.40;;
11691;SDS011;33659;42.672;23.354;2022-08-19T11:13:30;3.83;;;3.38;;
11691;SDS011;33659;42.672;23.354;2022-08-19T11:16:00;4.40;;;3.35;;
11691;SDS011;33659;42.672;23.354;2022-08-19T11:18:30;4.00;;;3.42;;
11691;SDS011;33659;42.672;23.354;2022-08-19T11:21:04;4.85;;;3.45;;
11691;SDS011;33659;42.672;23.354;2022-08-19T11:23:32;4.10;;;3.30;;
11691;SDS011;33659;42.672;23.354;2022-08-19T11:25:58;4.72;;;2.78;;
11691;SDS011;33659;42.672;23.354;2022-08-19T11:28:27;3.80;;;3.30;;
11691;SDS011;33659;42.672;23.354;2022-08-19T11:30:54;6.10;;;3.75;;
11691;SDS011;33659;42.672;23.354;2022-08-19T11:33:21;4.70;;;3.55;;
11691;SDS011;33659;42.672;23.354;2022-08-19T11:35:47;6.03;;;3.13;;
11691;SDS011;33659;42.672;23.354;2022-08-19T11:38:15;3.80;;;3.42;;
11691;SDS011;33659;42.672;23.354;2022-08-19T11:40:43;4.10;;;3.70;;
11691;SDS011;33659;42.672;23.354;2022-08-19T11:43:10;4.47;;;3.20;;
11691;SDS011;33659;42.672;23.354;2022-08-19T11:45:38;4.85;;;3.38;;
11691;SDS011;33659;42.672;23.354;2022-08-19T11:48:04;3.63;;;3.10;;
11691;SDS011;33659;42.672;23.354;2022-08-19T11:50:31;3.95;;;3.65;;
11691;SDS011;33659;42.672;23.354;2022-08-19T11:52:58;4.60;;;3.72;;
11691;SDS011;33659;42.672;23.354;2022-08-19T11:55:25;4.30;;;3.67;;
11691;SDS011;33659;42.672;23.354;2022-08-19T11:57:51;3.95;;;3.63;;
11691;SDS011;33659;42.672;23.354;2022-08-19T12:00:18;4.53;;;3.22;;
11691;SDS011;33659;42.672;23.354;2022-08-19T12:02:46;5.18;;;3.78;;
11691;SDS011;33659;42.672;23.354;2022-08-19T12:05:13;4.75;;;3.58;;
11691;SDS011;33659;42.672;23.354;2022-08-19T12:07:40;4.15;;;3.70;;
11691;SDS011;33659;42.672;23.354;2022-08-19T12:10:08;5.20;;;3.42;;
11691;SDS011;33659;42.672;23.354;2022-08-19T12:12:35;5.38;;;3.33;;
11691;SDS011;33659;42.672;23.354;2022-08-19T12:15:03;4.00;;;3.47;;
11691;SDS011;33659;42.672;23.354;2022-08-19T12:17:30;5.15;;;4.07;;
11691;SDS011;33659;42.672;23.354;2022-08-19T12:19:58;5.40;;;3.45;;
11691;SDS011;33659;42.672;23.354;2022-08-19T12:22:24;3.45;;;3.13;;
11691;SDS011;33659;42.672;23.354;2022-08-19T12:24:52;9.15;;;3.80;;
11691;SDS011;33659;42.672;23.354;2022-08-19T12:27:19;5.78;;;3.30;;
11691;SDS011;33659;42.672;23.354;2022-08-19T12:29:46;4.88;;;3.35;;
11691;SDS011;33659;42.672;23.354;2022-08-19T12:32:13;3.47;;;3.05;;
11691;SDS011;33659;42.672;23.354;2022-08-19T12:34:41;4.90;;;3.45;;
11691;SDS011;33659;42.672;23.354;2022-08-19T12:37:10;4.00;;;3.50;;
11691;SDS011;33659;42.672;23.354;2022-08-19T12:39:38;4.72;;;3.78;;
11691;SDS011;33659;42.672;23.354;2022-08-19T12:42:07;4.53;;;3.67;;
11691;SDS011;33659;42.672;23.354;2022-08-19T12:44:34;9.70;;;4.63;;
11691;SDS011;33659;42.672;23.354;2022-08-19T12:47:01;4.70;;;4.30;;
11691;SDS011;33659;42.672;23.354;2022-08-19T12:49:29;6.32;;;3.90;;
11691;SDS011;33659;42.672;23.354;2022-08-19T12:51:58;4.50;;;4.10;;
11691;SDS011;33659;42.672;23.354;2022-08-19T12:54:27;5.35;;;3.83;;
11691;SDS011;33659;42.672;23.354;2022-08-19T12:56:55;5.93;;;3.75;;
11691;SDS011;33659;42.672;23.354;2022-08-19T12:59:22;4.32;;;3.50;;
11691;SDS011;33659;42.672;23.354;2022-08-19T13:01:49;5.50;;;3.83;;
11691;SDS011;33659;42.672;23.354;2022-08-19T13:04:16;4.72;;;3.70;;
11691;SDS011;33659;42.672;23.354;2022-08-19T13:06:43;6.28;;;4.00;;
11691;SDS011;33659;42.672;23.354;2022-08-19T13:09:10;4.55;;;3.92;;
11691;SDS011;33659;42.672;23.354;2022-08-19T13:11:38;5.50;;;3.72;;
11691;SDS011;33659;42.672;23.354;2022-08-19T13:14:05;3.90;;;3.40;;
11691;SDS011;33659;42.672;23.354;2022-08-19T13:16:31;4.53;;;3.75;;
11691;SDS011;33659;42.672;23.354;2022-08-19T13:18:58;4.82;;;3.72;;
11691;SDS011;33659;42.672;23.354;2022-08-19T13:21:28;4.15;;;3.80;;
11691;SDS011;33659;42.672;23.354;2022-08-19T13:23:55;4.63;;;4.13;;
11691;SDS011;33659;42.672;23.354;2022-08-19T13:26:23;5.85;;;3.97;;
11691;SDS011;33659;42.672;23.354;2022-08-19T13:28:51;7.20;;;3.70;;
11691;SDS011;33659;42.672;23.354;2022-08-19T13:31:36;3.78;;;3.47;;
11691;SDS011;33659;42.672;23.354;2022-08-19T13:34:26;7.07;;;3.70;;
11691;SDS011;33659;42.672;23.354;2022-08-19T13:36:58;5.22;;;4.35;;
11691;SDS011;33659;42.672;23.354;2022-08-19T13:39:28;4.70;;;3.53;;
11691;SDS011;33659;42.672;23.354;2022-08-19T13:41:55;6.40;;;3.83;;
11691;SDS011;33659;42.672;23.354;2022-08-19T13:44:23;4.53;;;3.30;;
11691;SDS011;33659;42.672;23.354;2022-08-19T13:46:51;3.95;;;3.55;;
11691;SDS011;33659;42.672;23.354;2022-08-19T13:49:18;5.95;;;4.13;;
11691;SDS011;33659;42.672;23.354;2022-08-19T13:51:45;5.38;;;3.83;;
11691;SDS011;33659;42.672;23.354;2022-08-19T13:54:12;8.00;;;3.70;;
11691;SDS011;33659;42.672;23.354;2022-08-19T13:56:40;4.38;;;3.97;;
11691;SDS011;33659;42.672;23.354;2022-08-19T13:59:07;7.72;;;3.97;;
11691;SDS011;33659;42.672;23.354;2022-08-19T14:01:36;4.70;;;4.07;;
11691;SDS011;33659;42.672;23.354;2022-08-19T14:04:03;5.15;;;3.92;;
11691;SDS011;33659;42.672;23.354;2022-08-19T14:06:30;4.15;;;3.75;;
11691;SDS011;33659;42.672;23.354;2022-08-19T14:08:57;6.30;;;3.55;;
11691;SDS011;33659;42.672;23.354;2022-08-19T14:11:24;3.65;;;3.35;;
11691;SDS011;33659;42.672;23.354;2022-08-19T14:13:52;6.35;;;3.85;;
11691;SDS011;33659;42.672;23.354;2022-08-19T14:16:19;4.60;;;4.07;;
11691;SDS011;33659;42.672;23.354;2022-08-19T14:18:48;5.15;;;3.58;;
11691;SDS011;33659;42.672;23.354;2022-08-19T14:21:15;4.47;;;3.65;;
11691;SDS011;33659;42.672;23.354;2022-08-19T14:23:43;5.43;;;3.75;;
11691;SDS011;33659;42.672;23.354;2022-08-19T14:26:11;4.35;;;3.67;;
11691;SDS011;33659;42.672;23.354;2022-08-19T14:28:41;4.22;;;3.83;;
11691;SDS011;33659;42.672;23.354;2022-08-19T14:31:09;6.03;;;5.00;;
11691;SDS011;33659;42.672;23.354;2022-08-19T14:33:37;7.35;;;3.90;;
11691;SDS011;33659;42.672;23.354;2022-08-19T14:36:05;5.40;;;4.05;;
11691;SDS011;33659;42.672;23.354;2022-08-19T14:38:32;4.40;;;3.97;;
11691;SDS011;33659;42.672;23.354;2022-08-19T14:41:07;4.97;;;4.15;;